Apache Acres, Indiana
Current Conditions -  °F | °C
As of 7:22 AM on Monday 24 Nov 2014 (Local Time) from KHUF Reporting Station
Overcast Overcast  
Wind Chill: 10°   Ceiling: 900
Heat Index: 10°   Visibility: 10mi
Dew Point:   Wind: 20mph
Humidity: 89%   Direction: 270°W
Pressure: 29.24"   Gusts: 30mph
Location:  39.543°N, 87.3153°W
Report Text: KHUF 241222Z 27017G26KT 10SM BKN009 OVC014 10/08 A2924 RMK AO2 PK WND 24040/1206 RAE20 PRESRR P0000 T01000083 $
Loading
Personal Weather Stations






























Interactive Weather Map New forecast layout! Learn more

10-Day Weather Forecast

Advertisements
Track Severe Weather on mobile